Terminal Aerodrome Forecast
Issued by NWS Sioux Falls, SD

Home | Current Version | Previous Version | Graphics & Text | Print | Product List | Glossary On
Versions: 1 2 3 4 5 6 7 8 9 10 11 12 13 14 15 16 17 18 19 20 21 22 23 24 25 26 27 28 29 30 31 32 33 34 35 36 37 38
000
FTUS43 KFSD 220529
TAFSUX
TAF
KSUX 220529Z 2206/2306 32005KT P6SM SCT200
     FM220800 32007KT P6SM BKN070
     FM220900 33009KT P6SM BKN015
     FM221900 32012KT P6SM OVC025
     FM222000 32012KT P6SM BKN050
     FM230000 32008KT P6SM OVC110=

USA.gov is the U.S. government's official web portal to all federal, state and local government web resources and services.